Flight Track Log - Related Links

Times and Time Zones

All times are in EDT time to prevent confusion due to time zone crossing. See the AAL1398 flight status page for this flight to view local times or setup timezone preferences in your user account.

Time Position Orientation Groundspeed Altitude Reporting Facility
EDT Latitude Longitude Course Direction KTS MPH feet Rate Location/Type
Tue 12:39:00 PM 18.6910 -69.8409 328° Northwest  Level FlightAware Approximate
Tue 12:40:00 PM 18.7781 -69.8983 328° Northwest  Level FlightAware Approximate
Tue 12:41:00 PM 18.8652 -69.9558 328° Northwest  Level FlightAware Approximate
Tue 12:42:00 PM 18.9522 -70.0133 328° Northwest  Level FlightAware Approximate
Tue 12:43:00 PM 19.0392 -70.0710 328° Northwest  Level FlightAware Approximate
Tue 12:43:21 PM 18.7900 -69.6886 327° Northwest 464 534 18,100  Level Miami Center
Tue 12:44:00 PM 19.1295 -70.1308 328° Northwest  Level FlightAware Approximate
Tue 12:44:21 PM 18.8764 -69.7628 321° Northwest 434 499 20,000  Level Miami Center
Tue 12:45:00 PM 19.2067 -70.1883 325° Northwest  Level FlightAware Approximate
Tue 12:45:21 PM 18.9633 -69.8439 319° Northwest 417 480 21,900  Level Miami Center
Tue 12:46:00 PM 19.2936 -70.2535 325° Northwest  Level FlightAware Approximate
Tue 12:46:21 PM 19.0539 -69.9181 322° Northwest 412 474 23,900  Level Miami Center
Tue 12:47:00 PM 19.3821 -70.3164 327° Northwest  Level FlightAware Approximate
Tue 12:47:21 PM 19.1528 -69.9878 326° Northwest 418 481 25,600  Level Miami Center
Tue 12:48:00 PM 19.4718 -70.3773 327° Northwest  Level FlightAware Approximate
Tue 12:48:21 PM 19.2378 -70.0800 314° West 423 487 27,300  Level Miami Center
Tue 12:49:21 PM 19.3331 -70.1633 320° Northwest 429 494 29,000 1,700 Climbing Miami Center
Tue 12:50:21 PM 19.4303 -70.2464 321° Northwest 434 499 30,700 2,050 Climbing Miami Center
Tue 12:51:21 PM 19.5253 -70.3275 321° Northwest 445 512 33,100 2,150 Climbing Miami Center
Tue 12:52:21 PM 19.6181 -70.4111 320° Northwest 445 512 35,000 1,450 Climbing Miami Center
Tue 12:53:21 PM 19.7089 -70.4883 321° Northwest 439 505 36,000 500 Climbing Miami Center
Tue 12:54:21 PM 19.7992 -70.5636 322° Northwest 428 493 36,000  Level Miami Center
Tue 12:55:21 PM 19.8858 -70.6478 318° Northwest 428 493 36,000  Level Miami Center
Tue 12:56:21 PM 19.9786 -70.7250 322° Northwest 422 486 36,000  Level Miami Center
Tue 12:57:21 PM 20.0672 -70.8050 320° Northwest 422 486 36,000  Level Miami Center
Tue 12:58:21 PM 20.1578 -70.8850 320° Northwest 422 486 36,000  Level Miami Center
Tue 12:59:21 PM 20.2483 -70.9672 320° Northwest 422 486 36,000  Level Miami Center
Tue 01:00:21 PM 20.3367 -71.0472 320° Northwest 422 486 36,000  Level Miami Center
Tue 01:01:21 PM 20.4167 -71.1192 320° Northwest 422 486 36,000  Level Miami Center
Tue 01:02:21 PM 20.4850 -71.2203 306° West 417 480 36,000  Level Miami Center
Tue 01:03:21 PM 20.5450 -71.3239 302° West 417 480 36,000  Level Miami Center
Tue 01:04:21 PM 20.6089 -71.4233 304° West 417 480 36,000  Level Miami Center
Tue 01:05:21 PM 20.6708 -71.5250 303° West 417 480 36,000  Level Miami Center
Tue 01:06:21 PM 20.7369 -71.6286 304° West 417 480 36,000  Level Miami Center
Tue 01:07:21 PM 20.7986 -71.7306 303° West 417 480 36,000  Level Miami Center
Tue 01:08:21 PM 20.8625 -71.8347 303° West 417 480 36,000  Level Miami Center
Tue 01:09:21 PM 20.9264 -71.9344 304° West 417 480 36,000  Level Miami Center
Tue 01:10:21 PM 20.9881 -72.0389 302° West 422 486 36,000  Level Miami Center
Tue 01:11:21 PM 21.0494 -72.1411 303° West 422 486 36,000  Level Miami Center
Tue 01:12:21 PM 21.1133 -72.2456 303° West 422 486 36,000  Level Miami Center
Tue 01:13:21 PM 21.1789 -72.3500 304° West 422 486 36,000  Level Miami Center
Tue 01:14:21 PM 21.2403 -72.4483 304° West 422 486 36,000  Level Miami Center
Tue 01:15:21 PM 21.3036 -72.5531 303° West 422 486 36,000  Level Miami Center
Tue 01:16:21 PM 21.3647 -72.6536 303° West 422 486 36,000  Level Miami Center
Tue 01:17:21 PM 21.4303 -72.7564 304° West 422 486 36,000  Level Miami Center
Tue 01:18:21 PM 21.4914 -72.8592 303° West 416 479 36,000  Level Miami Center
Tue 01:19:21 PM 21.5503 -72.9578 303° West 411 473 36,000  Level Miami Center
Tue 01:20:22 PM 21.6092 -73.0611 302° West 406 467 36,000  Level Miami Center
Tue 01:21:21 PM 21.6703 -73.1619 303° West 406 467 36,000  Level Miami Center
Tue 01:22:21 PM 21.7289 -73.2653 301° West 406 467 36,000  Level Miami Center
Tue 01:23:21 PM 21.7919 -73.3686 303° West 406 467 36,000  Level Miami Center
Tue 01:24:21 PM 21.8569 -73.4700 305° West 406 467 36,000  Level Miami Center
Tue 01:25:21 PM 21.9133 -73.5714 301° West 406 467 36,000  Level Miami Center
Tue 01:26:21 PM 21.9825 -73.6794 305° West 401 461 36,000  Level Miami Center
Tue 01:27:21 PM 22.0328 -73.7856 297° West 396 456 36,000  Level Miami Center
Tue 01:28:21 PM 22.0953 -73.8828 305° West 396 456 36,000  Level Miami Center
Tue 01:29:21 PM 22.1556 -73.9822 303° West 401 461 36,000  Level Miami Center
Tue 01:30:21 PM 22.2181 -74.0864 303° West 406 467 36,000  Level Miami Center
Tue 01:31:21 PM 22.2783 -74.1861 303° West 406 467 36,000  Level Miami Center
Tue 01:32:21 PM 22.3364 -74.2858 302° West 406 467 36,000  Level Miami Center
Tue 01:33:21 PM 22.3967 -74.3881 303° West 406 467 36,000  Level Miami Center
Tue 01:34:21 PM 22.4567 -74.4881 303° West 406 467 36,000  Level Miami Center
Tue 01:35:21 PM 22.5167 -74.5925 302° West 406 467 36,000  Level Miami Center
Tue 01:36:21 PM 22.5747 -74.6928 302° West 406 467 36,000  Level Miami Center
Tue 01:37:21 PM 22.6344 -74.7931 303° West 406 467 36,000  Level Miami Center
Tue 01:38:21 PM 22.6944 -74.8933 303° West 406 467 36,000  Level Miami Center
Tue 01:39:21 PM 22.7519 -74.9939 302° West 401 461 36,000  Level Miami Center
Tue 01:40:21 PM 22.8117 -75.0944 303° West 401 461 36,000  Level Miami Center
Tue 01:41:21 PM 22.8694 -75.1950 302° West 401 461 36,000  Level Miami Center
Tue 01:42:21 PM 22.9289 -75.2958 303° West 401 461 36,000  Level Miami Center
Tue 01:43:21 PM 22.9883 -75.3989 302° West 401 461 36,000  Level Miami Center
Tue 01:44:21 PM 23.0458 -75.4975 302° West 396 456 36,000  Level Miami Center
Tue 01:45:21 PM 23.1053 -75.6008 302° West 396 456 36,000  Level Miami Center
Tue 01:46:21 PM 23.1625 -75.6997 302° West 396 456 36,000  Level Miami Center
Tue 01:47:22 PM 23.2069 -75.7806 301° West 396 456 36,000  Level Miami Center
Tue 01:48:21 PM 23.2703 -75.8931 302° West 396 456 36,000  Level Miami Center
Tue 01:49:21 PM 23.3294 -75.9944 302° West 396 456 36,000  Level Miami Center
Tue 01:50:21 PM 23.3864 -76.0939 302° West 396 456 36,000  Level Miami Center
Tue 01:51:21 PM 23.4433 -76.1931 302° West 396 456 36,000  Level Miami Center
Tue 01:52:21 PM 23.5003 -76.2925 302° West 396 456 36,000  Level Miami Center
Tue 01:53:21 PM 23.5569 -76.3875 303° West 386 444 36,000  Level Miami Center
Tue 01:54:21 PM 23.6136 -76.4892 301° West 386 444 36,000  Level Miami Center
Tue 01:55:21 PM 23.6683 -76.5867 302° West 381 438 36,000  Level Miami Center
Tue 01:56:21 PM 23.7269 -76.6864 303° West 381 438 36,000  Level Miami Center
Tue 01:57:21 PM 23.7792 -76.7839 300° West 381 438 36,000  Level Miami Center
Tue 01:58:21 PM 23.8356 -76.8839 302° West 381 438 36,000  Level Miami Center
Tue 01:59:21 PM 23.8900 -76.9817 301° West 380 437 36,000  Level Miami Center
Tue 02:00:21 PM 23.9464 -77.0794 302° West 380 437 36,000  Level Miami Center
Tue 02:01:22 PM 24.0006 -77.1842 300° West 386 444 36,000  Level Miami Center
Tue 02:02:22 PM 24.0544 -77.2822 301° West 386 444 36,000  Level Miami Center
Tue 02:03:21 PM 24.1106 -77.3825 302° West 386 444 36,000  Level Miami Center
Tue 02:04:21 PM 24.1689 -77.4853 302° West 386 444 36,000  Level Miami Center
Tue 02:05:21 PM 24.2206 -77.5811 301° West 386 444 36,000  Level Miami Center
Tue 02:06:21 PM 24.2764 -77.6819 301° West 381 438 36,000  Level Miami Center
Tue 02:07:21 PM 24.3322 -77.7825 301° West 381 438 36,000  Level Miami Center
Tue 02:08:21 PM 24.3922 -77.8925 301° West 381 438 36,000  Level Miami Center
Tue 02:09:21 PM 24.4458 -77.9911 301° West 381 438 36,000  Level Miami Center
Tue 02:10:21 PM 24.5014 -78.0919 301° West 381 438 36,000  Level Miami Center
Tue 02:11:21 PM 24.5550 -78.1908 301° West 381 438 36,000  Level Miami Center
Tue 02:12:21 PM 24.6147 -78.2919 303° West 386 444 36,000  Level Miami Center
Tue 02:13:21 PM 24.6681 -78.3933 300° West 381 438 36,000  Level Miami Center
Tue 02:14:21 PM 24.7233 -78.4947 301° West 386 444 36,000  Level Miami Center
Tue 02:15:21 PM 24.7806 -78.5961 302° West 386 444 36,000  Level Miami Center
Tue 02:16:21 PM 24.8339 -78.6953 301° West 379 436 36,000  Level Miami Center
Tue 02:17:21 PM 24.8911 -78.7947 302° West 385 443 36,000 -850 Level Miami Center
Tue 02:18:21 PM 24.9461 -78.8986 300° West 385 443 34,300 -2,650 Descending Miami Center
Tue 02:19:21 PM 25.0033 -78.9958 303° West 385 443 30,700 -3,521 Descending Miami Center
Tue 02:20:22 PM 25.0603 -79.1025 301° West 391 450 27,200 -3,150 Descending Miami Center
Tue 02:21:21 PM 25.1192 -79.2067 302° West 401 461 24,400 -2,924 Descending Miami Center
Tue 02:22:21 PM 25.1758 -79.3158 300° West 407 468 21,400 -2,900 Descending Miami Center
Tue 02:23:21 PM 25.2325 -79.4203 301° West 407 468 18,600 -2,700 Descending Miami Center
Tue 02:24:21 PM 25.2850 -79.5225 300° West 402 463 16,000 -2,562 Descending Miami Center
Tue 02:24:50 PM 25.3092 -79.5758 297° West 392 451 14,800 -2,600 Descending Miami Center
Tue 02:25:21 PM 25.3439 -79.6272 307° West 397 457 13,400 -1,846 Descending Miami Center
Tue 02:26:21 PM 25.3919 -79.7250 299° West 383 441 12,000 -1,215 Descending Miami Center
Tue 02:26:40 PM 25.4061 -79.7550 298° West 333 383 11,800 -1,400 Descending Miami Center
Tue 02:27:21 PM 25.4428 -79.8044 309° West 355 409 10,600 -1,770 Descending Miami Center
Tue 02:27:41 PM 25.4567 -79.8369 295° West 314 361 10,000 -1,200 Descending Miami Center
Tue 02:28:21 PM 25.4956 -79.8817 314° West 328 377 9,400 -885 Descending Miami Center
Tue 02:28:42 PM 25.5075 -79.9094 295° West 287 330 9,100 -1,100 Descending Miami Center
Tue 02:29:21 PM 25.5400 -79.9517 310° West 301 346 8,300 -985 Descending Miami Center
Tue 02:29:49 PM 25.5603 -79.9869 303° West 268 308 8,000 -400 Descending Miami Center
Tue 02:30:21 PM 25.5825 -80.0172 309° West 282 325 7,900  Descending Miami Center
Tue 02:30:44 PM 25.5986 -80.0478 300° West 266 306 8,000  Climbing Miami Center
Tue 02:31:21 PM 25.6269 -80.0831 312° West 270 311 7,900  Descending Miami Center
Tue 02:31:39 PM 25.6369 -80.1086 293° West 270 311 8,000  Climbing Miami Center
Tue 02:32:21 PM 25.6672 -80.1533 307° West 270 311 7,900  Descending Miami Center
Tue 02:32:41 PM 25.6686 -80.1808 273° West 248 285 8,000 -300 Climbing Miami Center
Tue 02:33:21 PM 25.6844 -80.2228 293° West 248 285 7,600 -818 Descending Miami Center
Tue 02:33:47 PM 25.6900 -80.2553 281° West 215 247 7,100 -1,400 Descending Miami Center
Tue 02:34:21 PM 25.7017 -80.2856 293° West 229 264 6,200 -1,636 Descending Miami Center
Tue 02:34:42 PM 25.7053 -80.3111 279° West 206 237 5,600 -1,551 Descending Miami Center
Tue 02:35:50 PM 25.7078 -80.3894 272° West 233 268 3,900 -1,244 Descending Miami Center
Tue 02:36:57 PM 25.7272 -80.4500 290° West 207 238 2,800 -985 Descending Miami Center

Login

Don't have an account? Register now (free) for customized features, flight alerts, and more!